Fuerteventura > ESTACION METEOROLÓGICA Tiscamanita - Tuineje

DATOS ACTUALES Online

Ultima actulizacion 3 minutos

20.1 ºC

Temperatura

92

Humedad (%)

986.53

Presión (mb)

4.8

Precipitación (mm)

18.5 NO

Viento (Km/h)

DATOS DIARIOS

Temperatura últimas 24 horas (ºC)

Humedad últimas 24 horas (%)

Presión atmosférica últimas 24 horas (mb)

Precipitaciones últimas 23 horas (mm)

Viento últimas 24 horas (Km/h)

Hora Temperatura (°C) ºC Precipitación (mm) mm Presión (mb) mb Humedad (%) % Viento (Km/h) km/h
24 - 23:00 21.7 0 988 81 17.2 NO
25 - 00:00 21.5 0 988 82 17.3 NO
25 - 01:00 21.1 0 988 83 14.7 N
25 - 02:00 21.1 0 987 83 8.6 N
25 - 03:00 21.3 0 987 81 7.8 N
25 - 04:00 21.3 0 987 79 11.6 N
25 - 05:00 21.2 0 987 82 12.9 N
25 - 06:00 21.1 0 987 83 19.3 N
25 - 07:00 21.1 0 987 85 19.8 N
25 - 08:00 21 0.3 987 87 10.1 N
25 - 09:00 21.4 0.3 988 85 16.9 NO
25 - 10:00 22 0.6 989 83 18.2 NO
25 - 11:00 21.9 0.7 988 82 25.5 NO
25 - 12:00 22.3 1.1 987 81 36.5 NO
25 - 13:00 23.6 1.2 987 73 38.6 NO
25 - 14:00 24.1 1.2 986 73 29.1 NO
25 - 15:00 23.6 1.2 986 75 25.4 NO
25 - 16:00 22.5 1.2 986 81 32.9 NO
25 - 17:00 21.6 1.8 987 85 28.3 NO
25 - 18:00 20.7 3 987 90 28.5 NO
25 - 19:00 20 4.5 987 91 26.6 NO
25 - 20:00 19.9 4.7 987 91 20.5 N
25 - 21:00 19.7 4.8 987 92 21.3 N
25 - 22:00 20 4.8 987 92 20.3 N
25 - 23:00 20.1 4.8 987 92 18.5 NO
Apalmet utiliza cookies propias y de terceros para mejorar la usabilidad y la experiencia web. Política de cookies.